Time;durP1;ratioP1;P1;durP2;ratioP2;P2;SDS_P1;SDS_P2;PMS_P1;PMS_P2;Temp;Humidity;BMP_temperature;BMP_pressure;BME280_temperature;BME280_humidity;BME280_pressure;Samples;Min_cycle;Max_cycle;Signal;HPM_P1;HPM_P2
2022/08/13 00:01:18;;;;;;;2.20;1.40;;;;;;;;;;5093733;28;20464;-92
2022/08/13 00:03:46;;;;;;;2.87;1.50;;;15.00;99.90;;;;;;5095001;28;20464;-93
2022/08/13 00:06:21;;;;;;;2.10;1.80;;;;;;;;;;5097023;28;20807;-93
2022/08/13 00:08:49;;;;;;;2.00;1.63;;;;;;;;;;5093771;28;20492;-92
2022/08/13 00:12:56;;;;;;;2.17;1.60;;;;;;;;;;5096098;28;20478;-93
2022/08/13 00:14:04;;;;;;;3.73;2.00;;;;;;;;;;5094589;28;20440;-95
2022/08/13 00:16:32;;;;;;;3.77;1.80;;;;;;;;;;5077534;28;20527;-93
2022/08/13 00:19:04;;;;;;;3.60;1.77;;;;;;;;;;5072317;28;20532;-91
2022/08/13 00:21:33;;;;;;;1.47;1.37;;;;;;;;;;5074463;28;20450;-92
2022/08/13 00:24:00;;;;;;;1.67;1.57;;;;;;;;;;5076132;28;20446;-92
2022/08/13 00:26:27;;;;;;;3.47;2.00;;;;;;;;;;5075459;28;20442;-92
2022/08/13 00:28:55;;;;;;;1.50;1.40;;;14.90;99.90;;;;;;5073612;28;20496;-90
2022/08/13 00:31:23;;;;;;;2.87;1.63;;;;;;;;;;5072336;28;20434;-91
2022/08/13 00:33:50;;;;;;;3.50;2.10;;;;;;;;;;5074113;28;20468;-92
2022/08/13 00:36:18;;;;;;;1.77;1.67;;;;;;;;;;5075619;28;20497;-93
2022/08/13 00:38:47;;;;;;;2.07;1.60;;;;;;;;;;5073975;28;20453;-95
2022/08/13 00:41:37;;;;;;;1.83;1.70;;;;;;;;;;5074180;28;20464;-93
2022/08/13 00:44:02;;;;;;;1.60;1.50;;;;;;;;;;5075358;28;20441;-93
2022/08/13 00:46:29;;;;;;;1.60;1.50;;;;;;;;;;5074081;28;20462;-93
2022/08/13 00:48:55;;;;;;;3.47;1.83;;;;;;;;;;5075685;28;20469;-91
2022/08/13 00:51:24;;;;;;;1.43;1.33;;;14.60;99.90;;;;;;5072665;28;20471;-93
2022/08/13 00:53:53;;;;;;;2.00;1.80;;;;;;;;;;5073226;28;20456;-93
2022/08/13 00:56:22;;;;;;;2.10;1.90;;;;;;;;;;5074897;28;20829;-93
2022/08/13 00:58:49;;;;;;;5.13;1.70;;;14.40;99.90;;;;;;5075698;28;20438;-93
2022/08/13 01:01:18;;;;;;;2.17;1.97;;;;;;;;;;5075361;28;20461;-93
2022/08/13 01:03:45;;;;;;;1.87;1.77;;;14.30;99.90;;;;;;5075464;28;20528;-92
2022/08/13 01:06:12;;;;;;;2.17;1.77;;;;;;;;;;5075422;28;20453;-93
2022/08/13 01:08:40;;;;;;;3.17;2.13;;;;;;;;;;5072126;28;20484;-92
2022/08/13 01:11:11;;;;;;;2.17;1.97;;;14.10;99.90;;;;;;5074781;28;20808;-92
2022/08/13 01:13:40;;;;;;;4.03;1.80;;;14.10;99.90;;;;;;5073825;28;20484;-92
2022/08/13 01:16:13;;;;;;;4.30;2.10;;;14.10;99.90;;;;;;5072708;28;20426;-93
2022/08/13 01:18:43;;;;;;;1.83;1.73;;;14.10;99.90;;;;;;5073572;28;20518;-93
2022/08/13 01:21:13;;;;;;;2.03;1.83;;;;;;;;;;5075358;28;20453;-93
2022/08/13 01:23:44;;;;;;;2.20;2.10;;;;;;;;;;5075203;28;20465;-94
2022/08/13 01:26:12;;;;;;;1.83;1.73;;;;;;;;;;5073018;28;20480;-94
2022/08/13 01:28:42;;;;;;;2.50;2.30;;;14.00;99.90;;;;;;5073457;28;20490;-93
2022/08/13 01:31:10;;;;;;;2.27;2.00;;;;;;;;;;5073641;28;20457;-95
2022/08/13 01:33:38;;;;;;;1.80;1.70;;;;;;;;;;5075925;28;20537;-91
2022/08/13 01:36:07;;;;;;;2.23;2.03;;;13.90;99.90;;;;;;5075030;28;20474;-92
2022/08/13 01:38:34;;;;;;;2.37;1.83;;;13.90;99.90;;;;;;5074494;28;20449;-93
2022/08/13 01:41:04;;;;;;;1.80;1.70;;;;;;;;;;5074236;28;20453;-91
2022/08/13 01:43:35;;;;;;;1.87;1.77;;;13.80;99.90;;;;;;5074639;28;20485;-89
2022/08/13 01:46:02;;;;;;;1.93;1.70;;;;;;;;;;5080785;28;20450;-94
2022/08/13 01:51:21;;;;;;;2.77;1.83;;;13.70;99.90;;;;;;5080161;28;20433;-92
2022/08/13 01:53:49;;;;;;;3.33;2.23;;;;;;;;;;5075418;28;20438;-94
2022/08/13 01:56:21;;;;;;;1.80;1.70;;;;;;;;;;5073575;28;20453;-91
2022/08/13 01:58:49;;;;;;;1.93;1.67;;;13.60;99.90;;;;;;5075470;28;20847;-94
2022/08/13 02:01:17;;;;;;;2.37;2.17;;;;;;;;;;5075326;28;20460;-95
2022/08/13 02:03:47;;;;;;;2.87;2.07;;;;;;;;;;5075033;28;20956;-93
2022/08/13 02:06:14;;;;;;;2.53;2.10;;;;;;;;;;5074962;28;20457;-94
2022/08/13 02:08:41;;;;;;;2.20;1.97;;;;;;;;;;5074808;28;20486;-94
2022/08/13 02:11:08;;;;;;;1.83;1.70;;;;;;;;;;5074336;28;20445;-93
2022/08/13 02:13:39;;;;;;;2.60;2.40;;;;;;;;;;5074388;28;20927;-93
2022/08/13 02:16:06;;;;;;;2.43;2.23;;;;;;;;;;5074291;28;20432;-91
2022/08/13 02:18:33;;;;;;;2.17;1.97;;;;;;;;;;5074823;28;20450;-92
2022/08/13 02:21:01;;;;;;;5.10;2.07;;;;;;;;;;5074650;28;20460;-92
2022/08/13 02:23:31;;;;;;;2.20;2.00;;;13.30;99.90;;;;;;5073286;28;20442;-94
2022/08/13 02:25:59;;;;;;;1.80;1.70;;;;;;;;;;5070772;28;20430;-92
2022/08/13 02:28:26;;;;;;;1.97;1.87;;;;;;;;;;5075804;28;20854;-94
2022/08/13 02:30:56;;;;;;;2.27;2.07;;;;;;;;;;5074274;28;20450;-95
2022/08/13 02:33:24;;;;;;;2.83;2.50;;;13.20;99.90;;;;;;5074129;28;20461;-93
2022/08/13 02:35:51;;;;;;;2.30;2.10;;;;;;;;;;5075946;28;20478;-93
2022/08/13 02:38:18;;;;;;;2.13;1.93;;;13.20;99.90;;;;;;5074425;28;20457;-94
2022/08/13 02:43:31;;;;;;;1.87;1.77;;;13.10;99.90;;;;;;5076237;28;20429;-93
2022/08/13 02:46:03;;;;;;;2.37;2.17;;;;;;;;;;5072444;28;20434;-93
2022/08/13 02:48:30;;;;;;;2.20;2.10;;;;;;;;;;5075641;28;20484;-92
2022/08/13 02:50:58;;;;;;;2.10;2.00;;;;;;;;;;5075897;28;20457;-92
2022/08/13 02:53:25;;;;;;;3.90;2.53;;;;;;;;;;5076708;28;20456;-93
2022/08/13 02:55:53;;;;;;;2.77;1.93;;;;;;;;;;5077804;28;20453;-93
2022/08/13 02:58:21;;;;;;;3.73;2.53;;;;;;;;;;5079984;28;20457;-93
2022/08/13 03:00:49;;;;;;;2.30;2.10;;;;;;;;;;5074984;28;20465;-93
2022/08/13 03:03:19;;;;;;;2.27;2.17;;;12.90;99.90;;;;;;5079538;28;20532;-94
2022/08/13 03:05:46;;;;;;;2.23;2.07;;;;;;;;;;5079557;28;20456;-94
2022/08/13 03:08:13;;;;;;;2.30;2.10;;;;;;;;;;5080079;28;20501;-94
2022/08/13 03:10:41;;;;;;;2.20;2.10;;;12.90;99.90;;;;;;5079321;28;20438;-94
2022/08/13 03:13:16;;;;;;;2.90;2.60;;;12.80;99.90;;;;;;5079684;28;20471;-95
2022/08/13 03:15:45;;;;;;;3.90;2.60;;;12.80;99.90;;;;;;5077450;28;20455;-94
2022/08/13 03:18:12;;;;;;;2.17;1.97;;;;;;;;;;5079388;28;20457;-93
2022/08/13 03:20:42;;;;;;;2.60;2.40;;;12.80;99.90;;;;;;5080535;28;20457;-94
2022/08/13 03:23:11;;;;;;;2.90;2.20;;;12.60;99.90;;;;;;5079745;28;20468;-92
2022/08/13 03:25:38;;;;;;;3.00;2.50;;;;;;;;;;5079923;28;20438;-94
2022/08/13 03:28:06;;;;;;;8.63;2.60;;;12.60;99.90;;;;;;5080065;28;20477;-95
2022/08/13 03:30:34;;;;;;;2.40;2.03;;;12.80;99.90;;;;;;5081369;28;20434;-94
2022/08/13 03:33:07;;;;;;;2.87;2.67;;;;;;;;;;5097758;28;20426;-93
2022/08/13 03:35:35;;;;;;;2.63;2.43;;;12.80;99.90;;;;;;5090191;28;20485;-95
2022/08/13 03:38:07;;;;;;;2.73;2.27;;;12.70;99.90;;;;;;5080467;28;20429;-94
2022/08/13 03:43:15;;;;;;;2.33;2.23;;;;;;;;;;5079262;28;20830;-95
2022/08/13 03:45:44;;;;;;;2.47;2.27;;;;;;;;;;5081058;28;20457;-95
2022/08/13 03:48:13;;;;;;;2.60;2.40;;;;;;;;;;5077991;28;20481;-94
2022/08/13 03:50:40;;;;;;;2.37;2.17;;;;;;;;;;5078860;28;20453;-93
2022/08/13 03:53:09;;;;;;;2.60;2.40;;;;;;;;;;5079831;28;20446;-94
2022/08/13 03:55:37;;;;;;;2.23;2.07;;;;;;;;;;5076358;28;20503;-93
2022/08/13 03:58:06;;;;;;;2.50;2.10;;;12.60;99.90;;;;;;5079131;28;20442;-92
2022/08/13 04:00:34;;;;;;;2.73;2.50;;;;;;;;;;5081988;28;20427;-93
2022/08/13 04:03:02;;;;;;;2.27;2.07;;;;;;;;;;5076214;28;20434;-92
2022/08/13 04:05:30;;;;;;;3.07;2.77;;;;;;;;;;5077118;28;20462;-93
2022/08/13 04:07:57;;;;;;;5.10;2.53;;;;;;;;;;5078965;28;20477;-91
2022/08/13 04:10:26;;;;;;;2.37;2.23;;;;;;;;;;5081461;28;20468;-94
2022/08/13 04:12:53;;;;;;;2.70;2.37;;;;;;;;;;5085181;28;20440;-93
2022/08/13 04:15:20;;;;;;;2.50;2.30;;;;;;;;;;5082113;28;20445;-93
2022/08/13 04:17:47;;;;;;;2.40;2.20;;;;;;;;;;5088178;28;20446;-94
2022/08/13 04:20:15;;;;;;;2.37;2.17;;;;;;;;;;5085861;28;20446;-94
2022/08/13 04:22:42;;;;;;;2.53;2.33;;;;;;;;;;5084234;28;20452;-92
2022/08/13 04:25:11;;;;;;;3.27;2.73;;;12.40;99.90;;;;;;5087852;28;20445;-94
2022/08/13 04:27:40;;;;;;;2.60;2.40;;;;;;;;;;5089714;28;20453;-95
2022/08/13 04:30:08;;;;;;;2.67;2.47;;;;;;;;;;5087997;28;20577;-93
2022/08/13 04:32:41;;;;;;;2.50;2.10;;;;;;;;;;5088766;28;20438;-94
2022/08/13 04:35:09;;;;;;;2.80;2.57;;;;;;;;;;5090255;28;20566;-93
2022/08/13 04:37:37;;;;;;;2.60;2.40;;;;;;;;;;5087475;28;20462;-93
2022/08/13 04:40:06;;;;;;;4.70;2.53;;;13.40;99.90;;;;;;5092505;28;20461;-92
2022/08/13 04:42:49;;;;;;;2.70;2.30;;;12.70;99.90;;;;;;5087800;28;20442;-94
2022/08/13 04:45:18;;;;;;;3.97;3.10;;;;;;;;;;5084309;28;20457;-94
2022/08/13 04:50:34;;;;;;;3.30;2.80;;;;;;;;;;5095264;28;20500;-94
2022/08/13 04:53:22;;;;;;;2.00;1.90;;;12.80;99.90;;;;;;5096949;28;20473;-95
2022/08/13 04:55:50;;;;;;;3.47;2.27;;;;;;;;;;5076389;22;20487;-94
2022/08/13 04:58:36;;;;;;;4.53;2.30;;;13.30;99.90;;;;;;5037071;28;20524;-95
2022/08/13 05:01:13;;;;;;;3.40;2.57;;;13.60;99.90;;;;;;5035916;28;20443;-95
2022/08/13 05:03:41;;;;;;;3.10;2.50;;;13.90;99.90;;;;;;5026008;28;20444;-92
2022/08/13 05:06:12;;;;;;;3.03;2.83;;;14.20;99.90;;;;;;5015773;28;20444;-93
2022/08/13 05:08:40;;;;;;;2.73;2.53;;;;;;;;;;5015059;28;20893;-93
2022/08/13 05:11:12;;;;;;;2.20;2.10;;;14.60;99.90;;;;;;5015611;28;20453;-92
2022/08/13 05:13:43;;;;;;;3.10;2.80;;;14.80;99.90;;;;;;5015341;28;20634;-94
2022/08/13 05:16:12;;;;;;;2.80;2.60;;;14.90;99.90;;;;;;5012534;28;20467;-92
2022/08/13 05:18:42;;;;;;;2.53;2.33;;;15.00;99.90;;;;;;5015465;28;20456;-92
2022/08/13 05:21:10;;;;;;;3.20;2.90;;;;;;;;;;5015355;28;20460;-92
2022/08/13 05:23:39;;;;;;;3.30;3.00;;;15.30;99.90;;;;;;5015431;28;20820;-91
2022/08/13 05:26:06;;;;;;;2.73;2.50;;;;;;;;;;5013117;28;20461;-92
2022/08/13 05:28:34;;;;;;;3.30;3.00;;;;;;;;;;5014904;28;20441;-92
2022/08/13 05:31:02;;;;;;;2.97;2.70;;;;;;;;;;5015714;28;20440;-92
2022/08/13 05:33:30;;;;;;;3.03;2.43;;;15.90;99.90;;;;;;5015557;28;20879;-92
2022/08/13 05:36:01;;;;;;;2.53;2.33;;;16.20;99.90;;;;;;5015089;28;20455;-92
2022/08/13 05:38:30;;;;;;;6.83;3.20;;;16.50;99.90;;;;;;5014953;28;20447;-93
2022/08/13 05:40:59;;;;;;;2.70;2.23;;;17.10;99.90;;;;;;5014463;28;20432;-92
2022/08/13 05:43:27;;;;;;;3.40;2.60;;;17.60;99.90;;;;;;5014803;28;20440;-94
2022/08/13 05:45:57;;;;;;;4.10;2.47;;;18.30;99.90;;;;;;5015607;28;20441;-95
2022/08/13 05:48:26;;;;;;;2.50;2.30;;;;;;;;;;5016047;28;20502;-93
2022/08/13 05:50:54;;;;;;;3.10;2.80;;;;;;;;;;5016245;28;20463;-91
2022/08/13 05:53:21;;;;;;;2.87;2.67;;;;;;;;;;5016536;28;20440;-93
2022/08/13 05:55:49;;;;;;;4.27;3.40;;;;;;;;;;5014681;28;20486;-95
2022/08/13 05:58:17;;;;;;;3.00;2.80;;;20.10;90.70;;;;;;5015721;28;20456;-93
2022/08/13 06:03:31;;;;;;;5.87;2.60;;;;;;;;;;5025085;28;20447;-93
2022/08/13 06:05:59;;;;;;;2.57;2.37;;;20.60;84.90;;;;;;5036202;28;20450;-92
2022/08/13 06:08:29;;;;;;;1.70;1.60;;;20.70;83.80;;;;;;5022102;28;20920;-93
2022/08/13 06:10:57;;;;;;;2.57;2.37;;;;;;;;;;5015313;28;20491;-92
2022/08/13 06:13:24;;;;;;;5.37;2.33;;;;;;;;;;5015039;28;20794;-94
2022/08/13 06:15:58;;;;;;;4.77;2.37;;;20.80;80.60;;;;;;5015464;28;20445;-94
2022/08/13 06:18:26;;;;;;;2.33;2.13;;;20.90;79.60;;;;;;5014603;28;20444;-94
2022/08/13 06:20:56;;;;;;;2.40;2.20;;;21.10;78.50;;;;;;5012456;28;20425;-92
2022/08/13 06:23:24;;;;;;;2.93;2.33;;;21.40;76.40;;;;;;5015177;28;20449;-93
2022/08/13 06:25:52;;;;;;;5.90;3.07;;;;;;;;;;5011935;28;20445;-93
2022/08/13 06:28:21;;;;;;;2.57;2.37;;;21.70;75.00;;;;;;5015788;28;20467;-93
2022/08/13 06:30:50;;;;;;;2.27;2.17;;;21.80;73.30;;;;;;5015990;28;20529;-91
2022/08/13 06:33:21;;;;;;;2.73;2.20;;;21.90;71.80;;;;;;5018689;28;20484;-93
2022/08/13 06:35:49;;;;;;;2.43;2.23;;;;;;;;;;5019311;28;20442;-92
2022/08/13 06:38:18;;;;;;;2.33;2.10;;;21.90;71.60;;;;;;5019233;28;20530;-93
2022/08/13 06:40:46;;;;;;;2.43;1.90;;;21.80;72.80;;;;;;5018752;28;20460;-94
2022/08/13 06:43:19;;;;;;;2.23;2.10;;;22.30;72.10;;;;;;5020113;28;20453;-92
2022/08/13 06:45:47;;;;;;;3.00;2.40;;;22.70;69.40;;;;;;5019855;28;20475;-93
2022/08/13 06:48:14;;;;;;;1.90;1.80;;;22.70;69.70;;;;;;5019327;28;20448;-92
2022/08/13 06:50:41;;;;;;;1.90;1.80;;;;;;;;;;5013555;28;20495;-94
2022/08/13 06:53:10;;;;;;;2.30;2.10;;;23.10;66.00;;;;;;5019194;28;20435;-92
2022/08/13 06:55:41;;;;;;;2.03;1.93;;;23.30;63.20;;;;;;5019057;28;20436;-93
2022/08/13 06:58:25;;;;;;;2.40;2.20;;;23.40;60.90;;;;;;5021061;28;20491;-95
2022/08/13 07:00:53;;;;;;;2.03;1.90;;;23.50;61.40;;;;;;5023716;28;20528;-93
2022/08/13 07:03:21;;;;;;;1.90;1.80;;;;;;;;;;5019672;28;20452;-94
2022/08/13 07:05:48;;;;;;;1.87;1.77;;;;;;;;;;5025776;28;20444;-92
2022/08/13 07:08:15;;;;;;;1.90;1.80;;;;;;;;;;5028436;28;20507;-92
2022/08/13 07:11:21;;;;;;;2.57;2.37;;;23.50;61.90;;;;;;5025750;28;20991;-90
2022/08/13 07:13:31;;;;;;;3.27;2.03;;;;;;;;;;5022962;28;20472;-94
2022/08/13 07:15:58;;;;;;;2.70;2.13;;;;;;;;;;5021656;28;20468;-93
2022/08/13 07:18:26;;;;;;;2.70;2.50;;;;;;;;;;5021060;28;20465;-94
2022/08/13 07:20:54;;;;;;;3.10;2.30;;;23.50;61.40;;;;;;5019191;28;20464;-95
2022/08/13 07:23:21;;;;;;;2.40;2.20;;;;;;;;;;5017252;28;20444;-93
2022/08/13 07:25:50;;;;;;;2.23;2.13;;;24.10;59.10;;;;;;5017256;28;20424;-93
2022/08/13 07:28:19;;;;;;;2.30;2.10;;;;;;;;;;5018110;28;20462;-94
2022/08/13 07:30:47;;;;;;;2.73;2.40;;;;;;;;;;5018195;28;20538;-93
2022/08/13 07:33:14;;;;;;;2.37;2.17;;;;;;;;;;5017726;28;20477;-90
2022/08/13 07:35:41;;;;;;;3.23;2.40;;;;;;;;;;5017721;28;20931;-93
2022/08/13 07:38:09;;;;;;;2.90;2.33;;;;;;;;;;5019998;28;20448;-94
2022/08/13 07:40:59;;;;;;;2.50;2.30;;;25.00;55.10;;;;;;5065271;22;20496;-92
2022/08/13 07:43:27;;;;;;;4.50;3.00;;;24.70;55.90;;;;;;5043721;22;21481;-93
2022/08/13 07:46:07;;;;;;;3.63;2.17;;;;;;;;;;5030123;28;20495;-94
2022/08/13 07:48:35;;;;;;;4.10;2.20;;;25.60;53.70;;;;;;5047441;22;20484;-93
2022/08/13 07:51:04;;;;;;;3.30;2.40;;;;;;;;;;5027615;28;20465;-95
2022/08/13 07:53:35;;;;;;;2.23;2.03;;;25.50;51.80;;;;;;5038548;22;20555;-94
2022/08/13 07:56:06;;;;;;;2.50;2.30;;;25.60;52.50;;;;;;5035505;28;20471;-94
2022/08/13 07:58:39;;;;;;;2.70;2.50;;;26.10;51.70;;;;;;5045344;22;20460;-92
2022/08/13 08:01:14;;;;;;;2.63;2.40;;;26.40;50.90;;;;;;5050311;22;20484;-93
2022/08/13 08:06:50;;;;;;;2.00;1.90;;;26.30;49.70;;;;;;5042815;22;20471;-93
2022/08/13 08:09:18;;;;;;;2.63;2.03;;;;;;;;;;5032162;22;20491;-93
2022/08/13 08:14:32;;;;;;;4.33;2.60;;;;;;;;;;5029178;28;20424;-94
2022/08/13 08:17:00;;;;;;;2.80;2.27;;;;;;;;;;5028821;28;20909;-96
2022/08/13 08:19:31;;;;;;;2.73;2.17;;;;;;;;;;5024748;28;20472;-93
2022/08/13 08:22:02;;;;;;;2.97;2.67;;;26.30;46.40;;;;;;5025825;28;20491;-93
2022/08/13 08:24:32;;;;;;;2.33;2.13;;;;;;;;;;5019905;28;21003;-93
2022/08/13 08:27:01;;;;;;;3.60;2.20;;;26.70;46.00;;;;;;5015513;28;20456;-93
2022/08/13 08:29:31;;;;;;;3.23;2.00;;;;;;;;;;5017023;28;20799;-93
2022/08/13 08:31:59;;;;;;;2.60;2.20;;;;;;;;;;5015650;28;21014;-94
2022/08/13 08:34:26;;;;;;;2.30;2.10;;;;;;;;;;5017449;28;20536;-94
2022/08/13 08:36:55;;;;;;;2.57;1.90;;;;;;;;;;5019478;28;20461;-95
2022/08/13 08:44:58;;;;;;;2.30;2.10;;;27.90;41.70;;;;;;5023602;28;20439;-94
2022/08/13 08:47:31;;;;;;;2.10;1.90;;;27.60;41.50;;;;;;5018431;28;20448;-92
2022/08/13 08:49:59;;;;;;;2.23;2.10;;;27.60;44.20;;;;;;5016016;28;20483;-95
2022/08/13 08:53:19;;;;;;;3.33;2.60;;;;;;;;;;5014854;28;20502;-95
2022/08/13 08:55:15;;;;;;;2.50;1.97;;;27.00;42.60;;;;;;5014874;28;20475;-90
2022/08/13 08:57:46;;;;;;;3.73;2.50;;;;;;;;;;5014706;28;20460;-94
2022/08/13 09:00:15;;;;;;;2.30;2.20;;;26.90;43.40;;;;;;5017968;28;20480;-92
2022/08/13 09:02:43;;;;;;;2.20;2.10;;;;;;;;;;5017509;28;20448;-95
2022/08/13 09:05:14;;;;;;;3.73;2.60;;;26.20;44.10;;;;;;5015761;28;20468;-93
2022/08/13 09:07:41;;;;;;;2.50;2.30;;;;;;;;;;5015481;28;20467;-92
2022/08/13 09:10:10;;;;;;;2.77;2.57;;;24.70;48.30;;;;;;5015321;28;20498;-92
2022/08/13 09:12:41;;;;;;;2.03;1.93;;;;;;;;;;5009711;28;20472;-93
2022/08/13 09:15:11;;;;;;;2.47;2.37;;;24.20;50.90;;;;;;5015713;28;20520;-93
2022/08/13 09:17:38;;;;;;;4.40;2.90;;;;;;;;;;5014962;28;20440;-93
2022/08/13 09:20:10;;;;;;;2.23;2.03;;;;;;;;;;5014508;28;20484;-93
2022/08/13 09:22:40;;;;;;;2.80;2.60;;;;;;;;;;5015067;28;20467;-94
2022/08/13 09:25:08;;;;;;;2.60;2.40;;;26.00;51.20;;;;;;5024269;28;20508;-91
2022/08/13 09:27:35;;;;;;;2.27;2.17;;;;;;;;;;5030392;28;20459;-95
2022/08/13 09:30:03;;;;;;;3.63;2.37;;;;;;;;;;5028512;28;20440;-94
2022/08/13 09:32:35;;;;;;;2.97;2.70;;;;;;;;;;5023762;28;20479;-94
2022/08/13 09:35:04;;;;;;;4.77;2.40;;;26.90;49.30;;;;;;5020075;28;20483;-92
2022/08/13 09:37:31;;;;;;;3.90;2.47;;;;;;;;;;5019795;28;20917;-92
2022/08/13 09:40:03;;;;;;;2.90;2.60;;;;;;;;;;5018154;28;21054;-91
2022/08/13 09:42:36;;;;;;;2.67;2.47;;;25.50;50.20;;;;;;5017535;28;20444;-92
2022/08/13 09:45:03;;;;;;;3.97;2.40;;;;;;;;;;5014368;28;20491;-91
2022/08/13 09:47:32;;;;;;;2.80;2.30;;;26.80;50.20;;;;;;5017083;28;20453;-94
2022/08/13 09:49:59;;;;;;;2.67;2.43;;;;;;;;;;5017665;28;20452;-93
2022/08/13 09:52:26;;;;;;;3.10;2.20;;;;;;;;;;5018436;28;20460;-94
2022/08/13 09:54:54;;;;;;;2.87;2.63;;;;;;;;;;5014596;28;20467;-94
2022/08/13 09:57:21;;;;;;;2.37;2.20;;;;;;;;;;5015944;28;20578;-96
2022/08/13 09:59:48;;;;;;;3.43;2.33;;;;;;;;;;5016725;28;20657;-94
2022/08/13 10:02:17;;;;;;;2.37;2.17;;;;;;;;;;5025551;22;20502;-92
2022/08/13 10:04:47;;;;;;;22.27;19.90;;;;;;;;;;5021098;28;20452;-93
2022/08/13 10:07:14;;;;;;;130.23;95.17;;;;;;;;;;5021789;28;20551;-92
2022/08/13 10:09:41;;;;;;;188.93;137.43;;;;;;;;;;5019087;28;20444;-94
2022/08/13 10:12:11;;;;;;;25.40;23.77;;;;;;;;;;5017187;28;20449;-93
2022/08/13 10:14:38;;;;;;;105.20;80.03;;;;;;;;;;5015440;28;20453;-92
2022/08/13 10:17:06;;;;;;;84.50;75.63;;;;;;;;;;5014445;28;20453;-95
2022/08/13 10:19:33;;;;;;;12.67;11.43;;;;;;;;;;5013752;28;20954;-92
2022/08/13 10:22:02;;;;;;;5.00;4.70;;;;;;;;;;5013834;28;20492;-93
2022/08/13 10:24:30;;;;;;;3.77;2.73;;;;;;;;;;5013614;28;20456;-94
2022/08/13 10:26:57;;;;;;;2.20;2.10;;;;;;;;;;5012889;28;20453;-95
2022/08/13 10:29:24;;;;;;;2.70;2.50;;;;;;;;;;5015005;28;20924;-95
2022/08/13 10:31:51;;;;;;;2.30;2.10;;;;;;;;;;5015869;28;20468;-92
2022/08/13 10:34:22;;;;;;;3.40;2.30;;;;;;;;;;5014491;28;20456;-92
2022/08/13 10:36:49;;;;;;;4.60;2.30;;;;;;;;;;5014697;28;20440;-93
2022/08/13 10:39:18;;;;;;;2.90;2.53;;;;;;;;;;5015395;28;20490;-92
2022/08/13 10:41:45;;;;;;;3.50;2.20;;;;;;;;;;5012988;28;20484;-92
2022/08/13 10:44:13;;;;;;;2.60;2.40;;;;;;;;;;5013887;28;20444;-94
2022/08/13 10:46:45;;;;;;;2.30;2.10;;;;;;;;;;5015193;28;20464;-92
2022/08/13 10:49:13;;;;;;;2.60;2.03;;;;;;;;;;5015218;28;20460;-93
2022/08/13 10:51:41;;;;;;;2.43;2.00;;;;;;;;;;5018570;28;20456;-95
2022/08/13 10:54:08;;;;;;;2.20;2.00;;;;;;;;;;5018705;28;20459;-93
2022/08/13 10:56:37;;;;;;;2.83;2.20;;;;;;;;;;5013903;28;20448;-93
2022/08/13 10:59:05;;;;;;;3.00;1.77;;;25.90;43.30;;;;;;5014530;28;20935;-93
2022/08/13 11:01:33;;;;;;;2.47;1.77;;;25.70;43.30;;;;;;5016822;28;20496;-93
2022/08/13 11:04:02;;;;;;;2.93;2.07;;;;;;;;;;5018596;28;20472;-93
2022/08/13 11:06:29;;;;;;;2.43;2.20;;;;;;;;;;5021529;28;20468;-94
2022/08/13 11:08:57;;;;;;;2.73;2.13;;;;;;;;;;5023662;28;20456;-92
2022/08/13 11:11:25;;;;;;;2.20;2.10;;;;;;;;;;5026890;28;20468;-94
2022/08/13 11:13:53;;;;;;;7.30;2.30;;;;;;;;;;5025665;28;20444;-92
2022/08/13 11:19:14;;;;;;;233.90;110.23;;;;;;;;;;5018526;28;20447;-95
2022/08/13 11:21:42;;;;;;;2.87;2.57;;;;;;;;;;5017617;28;20555;-94
2022/08/13 11:24:09;;;;;;;2.60;2.10;;;;;;;;;;5023377;28;20437;-94
2022/08/13 11:26:36;;;;;;;2.23;2.07;;;;;;;;;;5016431;28;20940;-90
2022/08/13 11:29:05;;;;;;;2.70;2.50;;;;;;;;;;5017359;28;20464;-93
2022/08/13 11:31:32;;;;;;;2.50;2.00;;;;;;;;;;5020438;28;20571;-92
2022/08/13 11:33:59;;;;;;;2.03;1.90;;;;;;;;;;5022065;28;20461;-91
2022/08/13 11:36:26;;;;;;;2.50;2.00;;;;;;;;;;5020648;28;20936;-94
2022/08/13 11:38:53;;;;;;;1.87;1.60;;;;;;;;;;5017933;28;20459;-90
2022/08/13 11:41:20;;;;;;;3.83;2.03;;;;;;;;;;5015840;28;20821;-92
2022/08/13 11:43:49;;;;;;;4.03;1.93;;;31.00;30.80;;;;;;5018644;28;20432;-93
2022/08/13 11:46:17;;;;;;;3.90;2.17;;;30.90;34.40;;;;;;5020446;28;20491;-90
2022/08/13 11:48:51;;;;;;;80.50;72.63;;;;;;;;;;5021384;28;20436;-93
2022/08/13 11:51:20;;;;;;;172.67;106.47;;;;;;;;;;5020139;28;20543;-95
2022/08/13 11:53:47;;;;;;;3.30;3.00;;;;;;;;;;5021956;28;20448;-92
2022/08/13 11:56:14;;;;;;;3.57;3.27;;;;;;;;;;5027535;28;20804;-94
2022/08/13 11:58:41;;;;;;;2.47;2.30;;;;;;;;;;5019988;28;20471;-93
2022/08/13 12:01:09;;;;;;;3.80;3.50;;;;;;;;;;5017772;28;20503;-94
2022/08/13 12:03:41;;;;;;;3.40;3.10;;;;;;;;;;5024104;28;20476;-95
2022/08/13 12:06:08;;;;;;;4.60;1.70;;;;;;;;;;5022266;28;20449;-94
2022/08/13 12:08:36;;;;;;;2.90;2.70;;;;;;;;;;5023489;28;20463;-93
2022/08/13 12:11:03;;;;;;;3.30;3.00;;;;;;;;;;5023408;28;20440;-94
2022/08/13 12:13:33;;;;;;;3.40;3.10;;;;;;;;;;5020279;28;20448;-94
2022/08/13 12:16:00;;;;;;;4.43;2.30;;;;;;;;;;5019811;28;20810;-96
2022/08/13 12:18:27;;;;;;;2.50;2.30;;;;;;;;;;5024463;28;20471;-93
2022/08/13 12:20:56;;;;;;;2.83;2.63;;;;;;;;;;5026065;28;20475;-93
2022/08/13 12:23:25;;;;;;;3.63;3.33;;;;;;;;;;5028320;28;20440;-95
2022/08/13 12:25:59;;;;;;;3.63;2.43;;;;;;;;;;5023301;28;20452;-93
2022/08/13 12:28:27;;;;;;;2.30;2.13;;;;;;;;;;5020843;28;20452;-94
2022/08/13 12:31:08;;;;;;;2.67;2.47;;;;;;;;;;5025142;28;20480;-94
2022/08/13 12:33:36;;;;;;;2.60;2.40;;;;;;;;;;5027792;28;20584;-92
2022/08/13 12:36:13;;;;;;;3.00;2.80;;;;;;;;;;5023829;28;20929;-93
2022/08/13 12:38:40;;;;;;;231.20;113.50;;;;;;;;;;5018774;28;20453;-94
2022/08/13 12:41:07;;;;;;;3.77;2.57;;;;;;;;;;5016419;28;20480;-95
2022/08/13 12:43:35;;;;;;;3.40;3.10;;;;;;;;;;5021553;28;20448;-93
2022/08/13 12:46:02;;;;;;;2.50;2.30;;;;;;;;;;5023968;28;20475;-93
2022/08/13 12:48:33;;;;;;;2.47;2.27;;;;;;;;;;5017707;28;20448;-93
2022/08/13 12:51:00;;;;;;;2.40;2.20;;;;;;;;;;5019751;28;20429;-94
2022/08/13 12:53:29;;;;;;;3.10;2.33;;;;;;;;;;5018092;28;20463;-93
2022/08/13 12:55:58;;;;;;;4.00;2.50;;;;;;;;;;5019138;28;20511;-94
2022/08/13 12:58:26;;;;;;;2.33;2.10;;;;;;;;;;5020568;28;20460;-94
2022/08/13 13:00:55;;;;;;;2.40;2.20;;;30.90;30.50;;;;;;5017450;28;20464;-96
2022/08/13 13:03:23;;;;;;;2.40;2.20;;;;;;;;;;5017664;28;20460;-93
2022/08/13 13:05:52;;;;;;;2.57;1.90;;;29.40;31.60;;;;;;5019436;28;20429;-92
2022/08/13 13:08:20;;;;;;;1.93;1.73;;;;;;;;;;5019658;28;20464;-93
2022/08/13 13:10:50;;;;;;;6.23;2.30;;;;;;;;;;5018080;28;20457;-96
2022/08/13 13:13:18;;;;;;;4.33;2.00;;;;;;;;;;5015713;28;20463;-93
2022/08/13 13:15:45;;;;;;;2.33;2.23;;;;;;;;;;5015990;28;20444;-92
2022/08/13 13:18:13;;;;;;;2.23;2.03;;;;;;;;;;5017818;28;20448;-94
2022/08/13 13:20:43;;;;;;;2.20;2.00;;;;;;;;;;5017062;28;20559;-93
2022/08/13 13:23:11;;;;;;;2.63;2.33;;;;;;;;;;5017052;28;20462;-88
2022/08/13 13:25:40;;;;;;;2.67;2.07;;;;;;;;;;5020416;28;20449;-95
2022/08/13 13:28:11;;;;;;;2.63;2.40;;;;;;;;;;5020449;28;20511;-92
2022/08/13 13:30:39;;;;;;;4.57;3.30;;;;;;;;;;5019721;28;20492;-90
2022/08/13 13:33:06;;;;;;;4.60;2.10;;;;;;;;;;5022256;28;20440;-94
2022/08/13 13:35:37;;;;;;;5.60;5.00;;;;;;;;;;5029114;28;20440;-93
2022/08/13 13:38:04;;;;;;;2.00;1.90;;;;;;;;;;5017304;28;20448;-93
2022/08/13 13:40:34;;;;;;;1.90;1.80;;;;;;;;;;5018429;28;20449;-94
2022/08/13 13:43:01;;;;;;;1.90;1.80;;;;;;;;;;5019268;28;20500;-89
2022/08/13 13:45:30;;;;;;;2.27;2.07;;;;;;;;;;5016402;28;20451;-94
2022/08/13 13:47:59;;;;;;;2.40;2.20;;;;;;;;;;5018507;28;20461;-93
2022/08/13 13:50:31;;;;;;;3.00;2.10;;;;;;;;;;5018022;28;20463;-93
2022/08/13 13:52:59;;;;;;;10.50;4.23;;;;;;;;;;5027887;22;20515;-94
2022/08/13 13:55:28;;;;;;;3.30;1.60;;;;;;;;;;5029161;28;20436;-91
2022/08/13 13:57:57;;;;;;;2.43;1.93;;;;;;;;;;5016143;28;20982;-92
2022/08/13 14:00:25;;;;;;;2.30;2.10;;;;;;;;;;5025082;28;20480;-94
2022/08/13 14:02:54;;;;;;;2.40;2.20;;;;;;;;;;5023932;28;20487;-93
2022/08/13 14:05:22;;;;;;;2.20;2.00;;;;;;;;;;5018434;28;20459;-93
2022/08/13 14:07:53;;;;;;;2.37;2.17;;;29.90;23.20;;;;;;5017477;28;20514;-90
2022/08/13 14:10:21;;;;;;;2.37;1.83;;;;;;;;;;5014015;28;20479;-93
2022/08/13 14:12:49;;;;;;;2.40;2.13;;;29.90;24.10;;;;;;5016337;28;20449;-90
2022/08/13 14:15:18;;;;;;;2.00;1.90;;;;;;;;;;5015533;28;20463;-93
2022/08/13 14:17:45;;;;;;;2.00;1.87;;;;;;;;;;5014270;28;20535;-95
2022/08/13 14:20:14;;;;;;;2.13;1.80;;;30.40;23.90;;;;;;5020192;28;20443;-90
2022/08/13 14:22:41;;;;;;;2.53;2.27;;;;;;;;;;5020279;28;20843;-93
2022/08/13 14:25:11;;;;;;;1.90;1.80;;;30.20;24.70;;;;;;5017883;28;20456;-93
2022/08/13 14:27:38;;;;;;;2.30;1.53;;;;;;;;;;5016851;28;20459;-91
2022/08/13 14:30:06;;;;;;;1.97;1.70;;;27.90;24.40;;;;;;5018207;28;20476;-94
2022/08/13 14:32:35;;;;;;;2.40;2.10;;;;;;;;;;5015774;28;20916;-94
2022/08/13 14:35:05;;;;;;;1.67;1.53;;;29.50;25.10;;;;;;5016067;28;20482;-94
2022/08/13 14:37:33;;;;;;;2.23;1.50;;;;;;;;;;5015506;28;20445;-92
2022/08/13 14:40:01;;;;;;;1.93;1.60;;;;;;;;;;5016101;28;20455;-93
2022/08/13 14:42:28;;;;;;;3.20;1.60;;;;;;;;;;5015980;28;20480;-92